Time;durP1;ratioP1;P1;durP2;ratioP2;P2;SDS_P1;SDS_P2;PMS_P1;PMS_P2;Temp;Humidity;BMP_temperature;BMP_pressure;BME280_temperature;BME280_humidity;BME280_pressure;Samples;Min_cycle;Max_cycle;Signal;HPM_P1;HPM_P2
2023/06/17 00:02:14;;;;;;;;;;;;;;;27.74;38.00;101655.38;5059460;28;19927;-73
2023/06/17 00:04:39;;;;;;;;;;;;;;;27.72;38.10;101654.72;5070255;28;19972;-73
2023/06/17 00:07:04;;;;;;;;;;;;;;;27.73;38.28;101655.56;5065544;28;19952;-73
2023/06/17 00:09:29;;;;;;;;;;;;;;;27.73;38.17;101652.84;5057661;28;19919;-72
2023/06/17 00:11:58;;;;;;;;;;;;;;;27.72;37.92;101648.41;5073018;28;19913;-72
2023/06/17 00:14:23;;;;;;;;;;;;;;;27.72;37.94;101653.88;5055820;28;20358;-72
2023/06/17 00:16:49;;;;;;;;;;;;;;;27.70;38.18;101653.22;5069799;28;19946;-72
2023/06/17 00:19:17;;;;;;;;;;;;;;;27.70;38.12;101653.22;5066012;28;19913;-72
2023/06/17 00:21:49;;;;;;;;;;;;;;;27.69;38.06;101649.66;5064820;28;19939;-72
2023/06/17 00:24:15;;;;;;;;;;;;;;;27.68;37.83;101650.72;5051840;28;19917;-72
2023/06/17 00:26:40;;;;;;;;;;;;;;;27.67;37.93;101647.13;5068064;28;19913;-72
2023/06/17 00:29:05;;;;;;;;;;;;;;;27.67;38.03;101635.38;5060710;28;19935;-72
2023/06/17 00:31:31;;;;;;;;;;;;;;;27.66;37.98;101642.72;5049143;28;19920;-72
2023/06/17 00:33:56;;;;;;;;;;;;;;;27.65;37.75;101637.47;5070183;28;20080;-72
2023/06/17 00:36:21;;;;;;;;;;;;;;;27.64;37.96;101633.06;5052290;28;20014;-72
2023/06/17 00:38:46;;;;;;;;;;;;;;;27.60;37.92;101632.63;5058665;28;19916;-72
2023/06/17 00:41:11;;;;;;;;;;;;;;;27.59;37.64;101628.22;5060477;28;19942;-72
2023/06/17 00:43:37;;;;;;;;;;;;;;;27.57;37.73;101637.66;5062935;28;19913;-72
2023/06/17 00:46:02;;;;;;;;;;;;;;;27.55;37.80;101637.88;5068590;28;19917;-72
2023/06/17 00:48:27;;;;;;;;;;;;;;;27.54;37.63;101632.63;5051238;28;19916;-72
2023/06/17 00:50:52;;;;;;;;;;;;;;;27.53;37.78;101630.97;5051661;28;19920;-73
2023/06/17 00:53:17;;;;;;;;;;;;;;;27.51;37.83;101633.88;5063702;28;19916;-72
2023/06/17 00:55:44;;;;;;;;;;;;;;;27.50;37.90;101629.47;5064274;28;19913;-72
2023/06/17 00:58:10;;;;;;;;;;;;;;;27.50;37.85;101620.44;5063099;28;19946;-72
2023/06/17 01:00:35;;;;;;;;;;;;;;;27.48;37.77;101622.53;5071755;28;19952;-72
2023/06/17 01:03:00;;;;;;;;;;;;;;;27.47;37.65;101618.97;5055732;28;20031;-72
2023/06/17 01:05:26;;;;;;;;;;;;;;;27.46;37.81;101606.38;5071984;28;19916;-72
2023/06/17 01:07:59;;;;;;;;;;;;;;;27.44;37.81;101602.97;5064095;28;19937;-72
2023/06/17 01:10:37;;;;;;;;;;;;;;;27.44;37.52;101600.25;5042981;28;19927;-72
2023/06/17 01:13:03;;;;;;;;;;;;;;;27.43;37.44;101601.31;5068425;28;19909;-72
2023/06/17 01:15:29;;;;;;;;;;;;;;;27.44;37.66;101602.16;5060367;28;20086;-72
2023/06/17 01:17:54;;;;;;;;;;;;;;;27.42;37.59;101608.66;5049776;28;19912;-72
2023/06/17 01:20:20;;;;;;;;;;;;;;;27.40;37.41;101602.59;5032758;28;19957;-72
2023/06/17 01:22:45;;;;;;;;;;;;;;;27.40;37.59;101593.56;5063865;28;19992;-72
2023/06/17 01:25:13;;;;;;;;;;;;;;;27.39;37.51;101595.41;5061524;28;19920;-72
2023/06/17 01:27:38;;;;;;;;;;;;;;;27.39;37.40;101592.69;5066356;28;19912;-72
2023/06/17 01:30:04;;;;;;;;;;;;;;;27.39;37.49;101594.59;5059671;28;19923;-71
2023/06/17 01:32:29;;;;;;;;;;;;;;;27.38;37.38;101590.19;5068959;28;19927;-71
2023/06/17 01:34:57;;;;;;;;;;;;;;;27.38;37.49;101606.56;5064211;28;19920;-72
2023/06/17 01:37:41;;;;;;;;;;;;;;;27.38;37.28;101612.03;5055135;28;19913;-72
2023/06/17 01:40:06;;;;;;;;;;;;;;;27.37;37.21;101618.53;5050210;28;19920;-73
2023/06/17 01:42:34;;;;;;;;;;;;;;;27.37;37.19;101613.09;5058724;28;19917;-72
2023/06/17 01:45:00;;;;;;;;;;;;;;;27.36;37.46;101611.41;5066006;28;20292;-72
2023/06/17 01:47:25;;;;;;;;;;;;;;;27.35;37.13;101602.34;5044419;28;19952;-72
2023/06/17 01:49:50;;;;;;;;;;;;;;;27.33;37.31;101607.19;5065433;28;19923;-72
2023/06/17 01:52:15;;;;;;;;;;;;;;;27.34;37.20;101605.28;5059549;28;19980;-72
2023/06/17 01:54:41;;;;;;;;;;;;;;;27.33;37.07;101609.09;5067950;28;19913;-71
2023/06/17 01:57:06;;;;;;;;;;;;;;;27.32;37.37;101601.94;5048709;28;19920;-72
2023/06/17 01:59:31;;;;;;;;;;;;;;;27.32;37.20;101599.22;5063641;28;19923;-72
2023/06/17 02:01:56;;;;;;;;;;;;;;;27.30;37.15;101604.03;5066258;28;19920;-72
2023/06/17 02:04:22;;;;;;;;;;;;;;;27.31;37.07;101611.16;5049112;28;19972;-72
2023/06/17 02:06:47;;;;;;;;;;;;;;;27.29;37.03;101608.66;5072962;28;19914;-72
2023/06/17 02:09:13;;;;;;;;;;;;;;;27.29;37.06;101610.56;5057458;28;19920;-72
2023/06/17 02:11:38;;;;;;;;;;;;;;;27.29;37.14;101610.56;5065373;28;19927;-72
2023/06/17 02:14:03;;;;;;;;;;;;;;;27.28;37.09;101606.16;5065689;28;19912;-72
2023/06/17 02:16:28;;;;;;;;;;;;;;;27.27;37.00;101607.16;5061901;28;19984;-72
2023/06/17 02:18:54;;;;;;;;;;;;;;;27.26;37.07;101609.06;5062752;28;19913;-72
2023/06/17 02:21:19;;;;;;;;;;;;;;;27.25;36.93;101606.56;5051670;28;19913;-72
2023/06/17 02:23:48;;;;;;;;;;;;;;;27.25;37.16;101604.66;5061907;28;19913;-71
2023/06/17 02:26:13;;;;;;;;;;;;;;;27.23;37.13;101604.03;5059868;28;19914;-72
2023/06/17 02:28:41;;;;;;;;;;;;;;;27.23;37.05;101606.78;5070086;28;19971;-73
2023/06/17 02:31:07;;;;;;;;;;;;;;;27.22;36.91;101599.59;5054115;28;19952;-71
2023/06/17 02:33:33;;;;;;;;;;;;;;;27.21;36.91;101605.28;5076397;28;19912;-73
2023/06/17 02:35:58;;;;;;;;;;;;;;;27.20;37.33;101598.16;5064526;28;20293;-71
2023/06/17 02:38:24;;;;;;;;;;;;;;;27.20;37.09;101601.72;5050907;28;19923;-71
2023/06/17 02:40:49;;;;;;;;;;;;;;;27.17;36.87;101594.75;5072731;28;19970;-72
2023/06/17 02:43:14;;;;;;;;;;;;;;;27.17;36.99;101592.03;5065330;28;19966;-72
2023/06/17 02:45:40;;;;;;;;;;;;;;;27.16;36.98;101593.09;5063650;28;20274;-72
2023/06/17 02:48:05;;;;;;;;;;;;;;;27.15;36.83;101585.13;5049765;28;19924;-72
2023/06/17 02:50:30;;;;;;;;;;;;;;;27.15;36.99;101587.84;5068633;28;19945;-72
2023/06/17 02:52:55;;;;;;;;;;;;;;;27.14;37.08;101591.59;5060733;28;19915;-72
2023/06/17 02:55:21;;;;;;;;;;;;;;;27.13;36.82;101596.22;5072858;28;19922;-72
2023/06/17 02:57:46;;;;;;;;;;;;;;;27.11;36.89;101584.69;5060490;28;19913;-72
2023/06/17 03:00:12;;;;;;;;;;;;;;;27.11;36.87;101584.69;5069045;28;19920;-72
2023/06/17 03:02:37;;;;;;;;;;;;;;;27.09;37.07;101584.03;5067955;28;19963;-72
2023/06/17 03:05:03;;;;;;;;;;;;;;;27.09;36.88;101583.16;5058947;28;20020;-71
2023/06/17 03:07:29;;;;;;;;;;;;;;;27.07;37.04;101579.81;5074282;28;19917;-71
2023/06/17 03:09:54;;;;;;;;;;;;;;;27.06;36.85;101579.00;5062136;28;19935;-71
2023/06/17 03:12:19;;;;;;;;;;;;;;;27.05;36.81;101584.63;5064509;28;19919;-72
2023/06/17 03:14:47;;;;;;;;;;;;;;;27.05;36.94;101581.91;5068066;28;20278;-71
2023/06/17 03:17:12;;;;;;;;;;;;;;;27.04;36.80;101585.69;5067959;28;19916;-72
2023/06/17 03:19:37;;;;;;;;;;;;;;;27.03;36.86;101575.81;5063948;28;20003;-72
2023/06/17 03:22:02;;;;;;;;;;;;;;;27.01;36.87;101586.09;5070768;28;20450;-72
2023/06/17 03:24:28;;;;;;;;;;;;;;;27.01;36.71;101583.38;5063315;28;20555;-72
2023/06/17 03:26:53;;;;;;;;;;;;;;;27.00;36.76;101581.69;5063707;28;19916;-72
2023/06/17 03:29:18;;;;;;;;;;;;;;;26.98;36.76;101583.78;5069924;28;19921;-72
2023/06/17 03:31:44;;;;;;;;;;;;;;;26.98;37.04;101584.63;5054957;28;19921;-72
2023/06/17 03:34:09;;;;;;;;;;;;;;;26.97;36.90;101579.38;5071873;28;19916;-72
2023/06/17 03:36:34;;;;;;;;;;;;;;;26.96;36.94;101577.69;5063661;28;19952;-72
2023/06/17 03:38:59;;;;;;;;;;;;;;;26.95;36.89;101574.13;5064058;28;19913;-72
2023/06/17 03:41:25;;;;;;;;;;;;;;;26.95;36.88;101578.75;5069004;28;20378;-73
2023/06/17 03:43:50;;;;;;;;;;;;;;;26.92;36.88;101560.88;5065655;28;20027;-72
2023/06/17 03:46:15;;;;;;;;;;;;;;;26.91;36.98;101570.97;5060631;28;19917;-72
2023/06/17 03:48:41;;;;;;;;;;;;;;;26.90;36.89;101569.28;5067753;28;19923;-72
2023/06/17 03:51:06;;;;;;;;;;;;;;;26.90;36.77;101569.28;5066246;28;19920;-71
2023/06/17 03:53:31;;;;;;;;;;;;;;;26.89;36.85;101564.03;5056133;28;19913;-72
2023/06/17 03:55:56;;;;;;;;;;;;;;;26.87;36.92;101563.41;5075101;28;19913;-72
2023/06/17 03:58:22;;;;;;;;;;;;;;;26.87;36.70;101563.41;5062049;28;19916;-72
2023/06/17 04:00:50;;;;;;;;;;;;;;;26.86;36.78;101565.28;5068515;28;19920;-72
2023/06/17 04:03:15;;;;;;;;;;;;;;;26.84;36.94;101559.19;5054551;28;19918;-72
2023/06/17 04:05:42;;;;;;;;;;;;;;;26.84;36.71;101550.16;5059832;28;20012;-72
2023/06/17 04:08:08;;;;;;;;;;;;;;;26.82;36.87;101555.84;5067430;28;19970;-72
2023/06/17 04:10:33;;;;;;;;;;;;;;;26.82;36.80;101555.84;5062565;28;19924;-72
2023/06/17 04:12:58;;;;;;;;;;;;;;;26.81;36.76;101558.78;5061531;28;19970;-72
2023/06/17 04:15:23;;;;;;;;;;;;;;;26.81;36.79;101556.03;5066253;28;20366;-72
2023/06/17 04:17:49;;;;;;;;;;;;;;;26.79;36.97;101561.69;5052051;28;19924;-72
2023/06/17 04:20:14;;;;;;;;;;;;;;;26.79;36.90;101563.56;5056350;28;19936;-72
2023/06/17 04:22:39;;;;;;;;;;;;;;;26.78;36.88;101564.63;5072434;28;19936;-72
2023/06/17 04:25:05;;;;;;;;;;;;;;;26.77;36.82;101574.72;5062749;28;19913;-72
2023/06/17 04:27:31;;;;;;;;;;;;;;;26.76;36.67;101567.56;5044684;28;19919;-72
2023/06/17 04:29:56;;;;;;;;;;;;;;;26.76;36.92;101578.50;5067499;28;20431;-72
2023/06/17 04:32:22;;;;;;;;;;;;;;;26.75;36.92;101576.78;5061950;28;19916;-71
2023/06/17 04:34:47;;;;;;;;;;;;;;;26.75;36.81;101578.69;5051335;28;19977;-71
2023/06/17 04:37:14;;;;;;;;;;;;;;;26.74;36.99;101579.72;5061100;28;19980;-72
2023/06/17 04:39:39;;;;;;;;;;;;;;;26.73;36.96;101578.88;5065131;28;19948;-73
2023/06/17 04:42:04;;;;;;;;;;;;;;;26.73;36.96;101573.44;5063076;28;19939;-72
2023/06/17 04:44:31;;;;;;;;;;;;;;;26.72;36.92;101576.34;5067711;28;19913;-72
2023/06/17 04:46:57;;;;;;;;;;;;;;;26.72;36.80;101570.88;5056689;28;19913;-72
2023/06/17 04:49:22;;;;;;;;;;;;;;;26.71;36.93;101566.50;5069787;28;19913;-72
2023/06/17 04:51:48;;;;;;;;;;;;;;;26.71;37.08;101574.69;5060432;28;19920;-71
2023/06/17 04:54:13;;;;;;;;;;;;;;;26.69;37.05;101569.44;5060396;28;20007;-72
2023/06/17 04:56:38;;;;;;;;;;;;;;;26.70;37.09;101575.72;5072951;28;19924;-73
2023/06/17 04:59:04;;;;;;;;;;;;;;;26.69;36.95;101582.25;5048129;28;20024;-72
2023/06/17 05:01:29;;;;;;;;;;;;;;;26.67;36.94;101586.00;5064956;28;20003;-72
2023/06/17 05:03:54;;;;;;;;;;;;;;;26.67;37.19;101585.16;5065110;28;19924;-71
2023/06/17 05:06:19;;;;;;;;;;;;;;;26.67;37.18;101576.97;5061139;28;19913;-71
2023/06/17 05:08:44;;;;;;;;;;;;;;;26.66;37.13;101581.59;5065204;28;19979;-73
2023/06/17 05:11:10;;;;;;;;;;;;;;;26.66;37.16;101580.75;5054777;28;19912;-72
2023/06/17 05:13:35;;;;;;;;;;;;;;;26.65;36.95;101576.34;5050900;28;20007;-72
2023/06/17 05:16:00;;;;;;;;;;;;;;;26.65;37.07;101584.53;5065696;28;19928;-72
2023/06/17 05:18:25;;;;;;;;;;;;;;;26.64;37.13;101577.41;5069582;28;20059;-72
2023/06/17 05:20:50;;;;;;;;;;;;;;;26.64;37.13;101577.41;5054503;28;19920;-71
2023/06/17 05:23:15;;;;;;;;;;;;;;;26.63;37.25;101587.47;5072948;28;19924;-71
2023/06/17 05:25:41;;;;;;;;;;;;;;;26.62;37.20;101585.75;5051950;28;19974;-72
2023/06/17 05:28:07;;;;;;;;;;;;;;;26.63;36.91;101581.16;5060839;28;19912;-72
2023/06/17 05:30:32;;;;;;;;;;;;;;;26.61;37.31;101581.34;5066073;28;19975;-71
2023/06/17 05:32:57;;;;;;;;;;;;;;;26.62;37.23;101574.00;5062869;28;19924;-71
2023/06/17 05:35:22;;;;;;;;;;;;;;;26.60;37.15;101568.78;5062607;28;19917;-71
2023/06/17 05:37:47;;;;;;;;;;;;;;;26.60;37.26;101576.97;5065180;28;19912;-72
2023/06/17 05:40:13;;;;;;;;;;;;;;;26.60;37.15;101576.97;5064754;28;19912;-72
2023/06/17 05:42:38;;;;;;;;;;;;;;;26.59;37.29;101574.41;5060693;28;20433;-71
2023/06/17 05:45:04;;;;;;;;;;;;;;;26.59;37.40;101571.69;5068729;28;19971;-72
2023/06/17 05:47:29;;;;;;;;;;;;;;;26.58;37.37;101568.13;5038772;28;19963;-72
2023/06/17 05:49:54;;;;;;;;;;;;;;;26.58;37.43;101570.00;5065416;28;20277;-72
2023/06/17 05:52:19;;;;;;;;;;;;;;;26.58;37.47;101578.19;5064071;28;19920;-72
2023/06/17 05:54:45;;;;;;;;;;;;;;;26.57;37.38;101580.09;5039010;28;19919;-72
2023/06/17 05:57:11;;;;;;;;;;;;;;;26.58;37.23;101576.31;5066676;28;19913;-72
2023/06/17 05:59:36;;;;;;;;;;;;;;;26.57;37.43;101584.69;5056934;28;19921;-72
2023/06/17 06:02:01;;;;;;;;;;;;;;;26.56;37.41;101581.13;5044492;28;20425;-72
2023/06/17 06:04:26;;;;;;;;;;;;;;;26.57;37.41;101579.25;5064747;28;20416;-72
2023/06/17 06:06:52;;;;;;;;;;;;;;;26.55;37.32;101576.72;5071494;28;19948;-71
2023/06/17 06:09:17;;;;;;;;;;;;;;;26.55;37.52;101578.59;5062636;28;19917;-72
2023/06/17 06:11:42;;;;;;;;;;;;;;;26.55;37.54;101575.88;5070522;28;19920;-72
2023/06/17 06:14:07;;;;;;;;;;;;;;;26.55;37.47;101578.59;5063365;28;19913;-72
2023/06/17 06:16:32;;;;;;;;;;;;;;;26.54;37.40;101572.31;5068399;28;19925;-72
2023/06/17 06:18:58;;;;;;;;;;;;;;;26.54;37.48;101569.56;5072703;28;19920;-72
2023/06/17 06:21:23;;;;;;;;;;;;;;;26.54;37.56;101574.19;5059761;28;19924;-72
2023/06/17 06:23:49;;;;;;;;;;;;;;;26.53;37.56;101567.91;5076164;28;19979;-72
2023/06/17 06:26:14;;;;;;;;;;;;;;;26.53;37.57;101567.91;5064032;28;19920;-72
2023/06/17 06:28:39;;;;;;;;;;;;;;;26.53;37.46;101567.06;5067455;28;19920;-72
2023/06/17 06:31:04;;;;;;;;;;;;;;;26.53;37.72;101567.91;5069750;28;19917;-72
2023/06/17 06:33:30;;;;;;;;;;;;;;;26.52;37.72;101570.84;5064857;28;19913;-72
2023/06/17 06:35:55;;;;;;;;;;;;;;;26.51;37.72;101567.28;5064108;28;19912;-72
2023/06/17 06:38:20;;;;;;;;;;;;;;;26.51;37.48;101572.72;5071538;28;19995;-72
2023/06/17 06:40:45;;;;;;;;;;;;;;;26.51;37.72;101567.28;5067894;28;20004;-72
2023/06/17 06:43:10;;;;;;;;;;;;;;;26.51;37.72;101574.63;5053332;28;19924;-72
2023/06/17 06:45:35;;;;;;;;;;;;;;;26.50;37.78;101571.03;5076354;28;19920;-72
2023/06/17 06:48:01;;;;;;;;;;;;;;;26.49;37.82;101573.97;5059853;28;19949;-72
2023/06/17 06:50:26;;;;;;;;;;;;;;;26.49;37.99;101573.97;5054962;28;19912;-72
2023/06/17 06:52:51;;;;;;;;;;;;;;;26.48;37.91;101578.59;5067830;28;19913;-72
2023/06/17 06:55:16;;;;;;;;;;;;;;;26.47;37.88;101576.06;5060851;28;20000;-72
2023/06/17 06:57:42;;;;;;;;;;;;;;;26.47;37.94;101571.44;5071091;28;19923;-72
2023/06/17 07:00:11;;;;;;;;;;;;;;;26.47;37.88;101573.34;5063722;28;19976;-72
2023/06/17 07:02:37;;;;;;;;;;;;;;;26.45;38.03;101573.53;5065289;28;19924;-72
2023/06/17 07:05:03;;;;;;;;;;;;;;;26.45;38.05;101567.22;5068649;28;20596;-72
2023/06/17 07:07:29;;;;;;;;;;;;;;;26.44;38.02;101571.84;5070688;28;20282;-72
2023/06/17 07:09:54;;;;;;;;;;;;;;;26.43;38.17;101570.97;5059754;28;19952;-72
2023/06/17 07:12:19;;;;;;;;;;;;;;;26.44;38.13;101574.56;5074779;28;20301;-72
2023/06/17 07:14:44;;;;;;;;;;;;;;;26.43;38.09;101579.16;5063456;28;19982;-72
2023/06/17 07:17:12;;;;;;;;;;;;;;;26.43;38.19;101581.88;5066837;28;19924;-72
2023/06/17 07:19:38;;;;;;;;;;;;;;;26.44;38.08;101577.31;5069208;28;19916;-72
2023/06/17 07:22:03;;;;;;;;;;;;;;;26.43;38.36;101581.88;5060344;28;20402;-72
2023/06/17 07:24:28;;;;;;;;;;;;;;;26.43;38.09;101579.16;5057833;28;19913;-72
2023/06/17 07:26:53;;;;;;;;;;;;;;;26.43;38.33;101578.31;5062036;28;19914;-72
2023/06/17 07:29:18;;;;;;;;;;;;;;;26.43;38.14;101573.72;5064992;28;19924;-72
2023/06/17 07:31:44;;;;;;;;;;;;;;;26.43;38.14;101570.97;5065944;28;19943;-70
2023/06/17 07:34:09;;;;;;;;;;;;;;;26.44;38.26;101574.56;5070596;28;19954;-71
2023/06/17 07:36:34;;;;;;;;;;;;;;;26.43;38.23;101578.31;5058599;28;19919;-71
2023/06/17 07:38:59;;;;;;;;;;;;;;;26.42;38.22;101577.47;5073273;28;19940;-72
2023/06/17 07:41:25;;;;;;;;;;;;;;;26.43;38.05;101572.88;5067237;28;19921;-72
2023/06/17 07:43:50;;;;;;;;;;;;;;;26.42;38.14;101573.88;5060375;28;19931;-71
2023/06/17 07:46:15;;;;;;;;;;;;;;;26.42;38.32;101579.34;5070889;28;20360;-72
2023/06/17 07:48:40;;;;;;;;;;;;;;;26.41;38.29;101570.31;5058171;28;20382;-71
2023/06/17 07:51:05;;;;;;;;;;;;;;;26.41;38.30;101580.41;5070753;28;19957;-72
2023/06/17 07:53:31;;;;;;;;;;;;;;;26.41;38.03;101573.06;5065956;28;19912;-71
2023/06/17 07:55:56;;;;;;;;;;;;;;;26.41;38.12;101566.75;5065345;28;19920;-71
2023/06/17 07:58:21;;;;;;;;;;;;;;;26.40;38.35;101571.38;5049269;28;20536;-71
2023/06/17 08:00:46;;;;;;;;;;;;;;;26.40;38.44;101563.19;5067956;28;19913;-71
2023/06/17 08:03:12;;;;;;;;;;;;;;;26.39;38.48;101572.44;5061781;28;19917;-72
2023/06/17 08:05:37;;;;;;;;;;;;;;;26.39;38.35;101572.44;5066409;28;19919;-72
2023/06/17 08:08:02;;;;;;;;;;;;;;;26.39;38.50;101571.59;5068242;28;19989;-72
2023/06/17 08:10:27;;;;;;;;;;;;;;;26.37;38.51;101562.75;5057678;28;20325;-71
2023/06/17 08:12:53;;;;;;;;;;;;;;;26.37;38.29;101573.66;5059540;28;19920;-72
2023/06/17 08:15:18;;;;;;;;;;;;;;;26.36;38.59;101570.09;5063131;28;19944;-71
2023/06/17 08:17:43;;;;;;;;;;;;;;;26.37;38.48;101565.47;5064809;28;19913;-71
2023/06/17 08:20:09;;;;;;;;;;;;;;;26.36;38.58;101561.91;5056096;28;19970;-71
2023/06/17 08:22:35;;;;;;;;;;;;;;;26.36;38.43;101566.53;5061264;28;20325;-71
2023/06/17 08:25:01;;;;;;;;;;;;;;;26.36;38.82;101556.47;5065733;28;20377;-71
2023/06/17 08:27:27;;;;;;;;;;;;;;;26.35;38.65;101552.06;5064960;28;19923;-71
2023/06/17 08:29:52;;;;;;;;;;;;;;;26.35;38.49;101552.06;5065576;28;19913;-72
2023/06/17 08:32:17;;;;;;;;;;;;;;;26.35;38.46;101551.22;5064003;28;19919;-72
2023/06/17 08:34:42;;;;;;;;;;;;;;;26.34;38.62;101553.13;5071698;28;19920;-72
2023/06/17 08:37:08;;;;;;;;;;;;;;;26.34;38.37;101547.66;5056268;28;19959;-72
2023/06/17 08:39:38;;;;;;;;;;;;;;;26.34;38.59;101553.13;5071119;28;19950;-72
2023/06/17 08:42:04;;;;;;;;;;;;;;;26.34;38.61;101558.56;5064613;28;19924;-72
2023/06/17 08:44:30;;;;;;;;;;;;;;;26.35;38.53;101556.69;5057127;28;19920;-72
2023/06/17 08:46:55;;;;;;;;;;;;;;;26.34;38.91;101561.28;5070832;28;19913;-71
2023/06/17 08:49:21;;;;;;;;;;;;;;;26.34;38.72;101555.84;5043195;28;19970;-72
2023/06/17 08:51:48;;;;;;;;;;;;;;;26.34;38.59;101555.00;5067597;28;19983;-72
2023/06/17 08:54:13;;;;;;;;;;;;;;;26.35;38.71;101553.94;5046567;28;19936;-71
2023/06/17 08:56:38;;;;;;;;;;;;;;;26.34;38.56;101549.56;5066306;28;19913;-71
2023/06/17 08:59:04;;;;;;;;;;;;;;;26.34;38.64;101550.38;5063122;28;19912;-72
2023/06/17 09:01:29;;;;;;;;;;;;;;;26.35;38.59;101548.50;5050826;28;19913;-73
2023/06/17 09:03:54;;;;;;;;;;;;;;;26.35;38.64;101548.50;5059778;28;20004;-72
2023/06/17 09:06:20;;;;;;;;;;;;;;;26.34;38.73;101550.38;5049813;28;19921;-71
2023/06/17 09:08:46;;;;;;;;;;;;;;;26.34;38.68;101544.09;5067503;28;19917;-72
2023/06/17 09:11:11;;;;;;;;;;;;;;;26.35;38.78;101551.22;5057219;28;19963;-72
2023/06/17 09:13:36;;;;;;;;;;;;;;;26.35;38.68;101552.06;5055581;28;19932;-72
2023/06/17 09:16:01;;;;;;;;;;;;;;;26.35;38.80;101546.59;5057845;28;19944;-71
2023/06/17 09:18:27;;;;;;;;;;;;;;;26.36;38.89;101552.91;5062612;28;19955;-72
2023/06/17 09:20:55;;;;;;;;;;;;;;;26.36;38.79;101542.00;5066098;28;19968;-71
2023/06/17 09:23:20;;;;;;;;;;;;;;;26.34;38.73;101553.13;5062563;28;19927;-71
2023/06/17 09:25:45;;;;;;;;;;;;;;;26.35;38.95;101553.94;5063364;28;19913;-72
2023/06/17 09:28:10;;;;;;;;;;;;;;;26.37;38.82;101551.84;5067433;28;19988;-72
2023/06/17 09:30:36;;;;;;;;;;;;;;;26.36;38.89;101552.91;5063018;28;19926;-71
2023/06/17 09:33:01;;;;;;;;;;;;;;;26.37;38.87;101557.31;5060359;28;19943;-72
2023/06/17 09:35:27;;;;;;;;;;;;;;;26.36;38.77;101550.19;5071573;28;19917;-71
2023/06/17 09:37:53;;;;;;;;;;;;;;;26.37;38.89;101549.13;5054029;28;19967;-71
2023/06/17 09:40:18;;;;;;;;;;;;;;;26.37;38.79;101543.66;5066631;28;19912;-72
2023/06/17 09:42:44;;;;;;;;;;;;;;;26.37;38.90;101547.22;5058945;28;19921;-71
2023/06/17 09:45:11;;;;;;;;;;;;;;;26.38;38.90;101550.84;5059138;28;19963;-71
2023/06/17 09:47:37;;;;;;;;;;;;;;;26.37;38.80;101547.22;5070614;28;19925;-72
2023/06/17 09:50:08;;;;;;;;;;;;;;;26.39;38.76;101547.06;5043906;28;19924;-72
2023/06/17 09:52:35;;;;;;;;;;;;;;;26.39;38.69;101553.34;5061089;28;19924;-71
2023/06/17 09:55:02;;;;;;;;;;;;;;;26.39;38.86;101542.44;5064991;28;19920;-71
2023/06/17 09:57:31;;;;;;;;;;;;;;;26.40;38.89;101548.72;5047828;28;19917;-71
2023/06/17 09:59:56;;;;;;;;;;;;;;;26.39;38.89;101542.44;5060944;28;19972;-72
2023/06/17 10:02:21;;;;;;;;;;;;;;;26.40;38.75;101549.56;5051550;28;19917;-72
2023/06/17 10:04:46;;;;;;;;;;;;;;;26.41;38.88;101558.59;5056565;28;19918;-72
2023/06/17 10:07:12;;;;;;;;;;;;;;;26.41;38.98;101548.50;5048125;28;19916;-72
2023/06/17 10:09:37;;;;;;;;;;;;;;;26.42;38.92;101552.06;5063039;28;19920;-72
2023/06/17 10:12:02;;;;;;;;;;;;;;;26.43;38.64;101545.59;5057470;28;19913;-72
2023/06/17 10:14:29;;;;;;;;;;;;;;;26.43;38.76;101548.31;5054469;28;20404;-72
2023/06/17 10:16:54;;;;;;;;;;;;;;;26.43;39.01;101549.16;5041990;28;19917;-72
2023/06/17 10:19:21;;;;;;;;;;;;;;;26.43;38.79;101546.44;5045641;28;19959;-72
2023/06/17 10:21:46;;;;;;;;;;;;;;;26.45;38.99;101548.16;5046059;28;19959;-72
2023/06/17 10:24:12;;;;;;;;;;;;;;;26.45;38.78;101543.53;5048760;28;19921;-72
2023/06/17 10:26:38;;;;;;;;;;;;;;;26.45;38.98;101539.97;5039762;28;19947;-72
2023/06/17 10:29:06;;;;;;;;;;;;;;;26.45;38.81;101529.06;5068517;28;20266;-72
2023/06/17 10:31:33;;;;;;;;;;;;;;;26.45;39.08;101538.06;5059840;28;19928;-72
2023/06/17 10:34:01;;;;;;;;;;;;;;;26.46;38.81;101533.47;5045881;28;19970;-72
2023/06/17 10:36:27;;;;;;;;;;;;;;;26.47;38.90;101524.25;5044083;28;19912;-72
2023/06/17 10:39:13;;;;;;;;;;;;;;;26.47;38.88;101527.81;5033151;28;19952;-72
2023/06/17 10:41:38;;;;;;;;;;;;;;;26.48;39.01;101531.38;5069646;28;19913;-72
2023/06/17 10:44:22;;;;;;;;;;;;;;;26.48;38.92;101532.22;5057974;28;19973;-72
2023/06/17 10:46:50;;;;;;;;;;;;;;;26.49;39.00;101525.72;5051775;28;20424;-73
2023/06/17 10:49:19;;;;;;;;;;;;;;;26.51;39.18;101520.91;5045346;28;19964;-72
2023/06/17 10:51:44;;;;;;;;;;;;;;;26.52;38.94;101519.88;5068600;28;19920;-72
2023/06/17 10:54:10;;;;;;;;;;;;;;;26.53;39.07;101526.16;5064281;28;19917;-72
2023/06/17 10:56:45;;;;;;;;;;;;;;;26.53;39.01;101518.81;5071812;28;20290;-73
2023/06/17 10:59:10;;;;;;;;;;;;;;;26.54;39.08;101512.31;5061746;28;19924;-72
2023/06/17 11:01:39;;;;;;;;;;;;;;;26.56;39.22;101518.41;5051145;28;19921;-71
2023/06/17 11:04:07;;;;;;;;;;;;;;;26.58;39.16;101519.03;5067414;28;19920;-71
2023/06/17 11:06:32;;;;;;;;;;;;;;;26.59;39.15;101514.41;5058219;28;19920;-71
2023/06/17 11:08:57;;;;;;;;;;;;;;;26.61;39.09;101509.59;5075687;28;19916;-71
2023/06/17 11:11:22;;;;;;;;;;;;;;;26.63;39.21;101507.50;5060226;28;19931;-72
2023/06/17 11:13:48;;;;;;;;;;;;;;;26.63;39.13;101502.03;5066500;28;19912;-72
2023/06/17 11:16:14;;;;;;;;;;;;;;;26.64;39.14;101503.75;5068032;28;19924;-73
2023/06/17 11:18:42;;;;;;;;;;;;;;;26.65;39.16;101502.69;5067751;28;19917;-72
2023/06/17 11:21:07;;;;;;;;;;;;;;;26.67;39.24;101504.16;5065967;28;20013;-73
2023/06/17 11:23:33;;;;;;;;;;;;;;;26.69;39.26;101498.50;5069457;28;19916;-73
2023/06/17 11:25:59;;;;;;;;;;;;;;;26.70;39.37;101496.63;5062299;28;20015;-73
2023/06/17 11:28:24;;;;;;;;;;;;;;;26.72;39.19;101498.09;5065106;28;19936;-73
2023/06/17 11:30:49;;;;;;;;;;;;;;;26.73;39.16;101499.78;5068947;28;19925;-73
2023/06/17 11:33:17;;;;;;;;;;;;;;;26.75;39.21;101494.94;5054964;28;19920;-73
2023/06/17 11:35:43;;;;;;;;;;;;;;;26.76;39.18;101485.72;5071899;28;19992;-73
2023/06/17 11:38:08;;;;;;;;;;;;;;;26.78;39.23;101490.97;5063027;28;20361;-73
2023/06/17 11:40:33;;;;;;;;;;;;;;;26.79;39.24;101485.28;5044989;28;20000;-72
2023/06/17 11:42:59;;;;;;;;;;;;;;;26.81;39.16;101485.94;5069518;28;19939;-72
2023/06/17 11:45:26;;;;;;;;;;;;;;;26.83;39.28;101480.28;5052774;28;19920;-72
2023/06/17 11:47:51;;;;;;;;;;;;;;;26.84;39.15;101477.31;5063780;28;19913;-72
2023/06/17 11:50:17;;;;;;;;;;;;;;;26.86;39.29;101468.94;5066337;28;19934;-72
2023/06/17 11:52:51;;;;;;;;;;;;;;;26.89;39.20;101468.53;5065522;28;19912;-72
2023/06/17 11:55:17;;;;;;;;;;;;;;;26.90;39.46;101467.47;5039498;28;19913;-72
2023/06/17 11:57:43;;;;;;;;;;;;;;;26.91;39.22;101464.53;5072938;28;20425;-72
2023/06/17 12:00:09;;;;;;;;;;;;;;;26.94;39.12;101473.38;5054564;28;19924;-72
2023/06/17 12:02:35;;;;;;;;;;;;;;;26.95;39.11;101467.69;5059691;28;19924;-72
2023/06/17 12:05:03;;;;;;;;;;;;;;;26.97;39.15;101464.75;5064836;28;19921;-72
2023/06/17 12:07:28;;;;;;;;;;;;;;;27.00;39.04;101458.88;5059800;28;19913;-72
2023/06/17 12:09:54;;;;;;;;;;;;;;;27.01;39.32;101461.38;5071334;28;20002;-72
2023/06/17 12:12:29;;;;;;;;;;;;;;;27.04;39.09;101457.41;5044147;28;19913;-72
2023/06/17 12:15:01;;;;;;;;;;;;;;;27.06;39.36;101461.63;5065492;28;19996;-73
2023/06/17 12:17:27;;;;;;;;;;;;;;;27.08;39.38;101462.22;5065596;28;19941;-72
2023/06/17 12:19:57;;;;;;;;;;;;;;;27.11;39.11;101461.03;5066756;28;19924;-72
2023/06/17 12:22:22;;;;;;;;;;;;;;;27.12;39.15;101455.34;5041949;28;19917;-72
2023/06/17 12:24:47;;;;;;;;;;;;;;;27.15;39.10;101460.38;5072926;28;19935;-72
2023/06/17 12:27:14;;;;;;;;;;;;;;;27.17;39.00;101460.16;5058109;28;20166;-71
2023/06/17 12:29:40;;;;;;;;;;;;;;;27.19;39.30;101449.88;5068017;28;19924;-72